Time;durP1;ratioP1;P1;durP2;ratioP2;P2;SDS_P1;SDS_P2;PMS_P1;PMS_P2;Temp;Humidity;BMP_temperature;BMP_pressure;BME280_temperature;BME280_humidity;BME280_pressure;Samples;Min_cycle;Max_cycle;Signal;HPM_P1;HPM_P2
2024/01/25 00:01:59;;;;;;;8.68;2.03;;;;;;;;;;5016214;28;20041;-87
2024/01/25 00:04:24;;;;;;;8.63;1.55;;;;;;;;;;5015068;28;20496;-87
2024/01/25 00:06:50;;;;;;;4.50;2.03;;;;;;;;;;5015760;28;20037;-87
2024/01/25 00:09:15;;;;;;;3.90;1.30;;;;;;;;;;5024154;28;20025;-86
2024/01/25 00:11:40;;;;;;;4.45;1.05;;;;;;;;;;5020952;28;20037;-87
2024/01/25 00:14:06;;;;;;;15.82;1.60;;;;;;;;;;5016450;28;20029;-87
2024/01/25 00:16:31;;;;;;;3.15;1.23;;;;;;;;;;5014619;28;20064;-86
2024/01/25 00:18:56;;;;;;;5.38;1.40;;;;;;;;;;5013896;28;20531;-87
2024/01/25 00:21:22;;;;;;;8.10;1.65;;;;;;;;;;5014059;28;20022;-86
2024/01/25 00:23:47;;;;;;;4.05;0.90;;;;;;;;;;5017434;28;20057;-86
2024/01/25 00:26:12;;;;;;;7.28;2.00;;;;;;;;;;5016067;28;20033;-86
2024/01/25 00:28:38;;;;;;;10.50;2.00;;;;;;;;;;5017758;28;20053;-86
2024/01/25 00:31:03;;;;;;;12.80;2.60;;;;;;;;;;5015889;28;20072;-87
2024/01/25 00:33:29;;;;;;;0.65;0.57;;;;;;;;;;5015247;28;20022;-88
2024/01/25 00:35:54;;;;;;;2.65;1.13;;;;;;;;;;5016085;28;20022;-87
2024/01/25 00:38:20;;;;;;;3.92;1.77;;;;;;;;;;5015866;28;20033;-87
2024/01/25 00:40:46;;;;;;;1.85;0.80;;;;;;;;;;5013517;28;20032;-86
2024/01/25 00:43:12;;;;;;;3.97;1.65;;;;;;;;;;5013996;28;20018;-86
2024/01/25 00:45:37;;;;;;;2.30;1.00;;;;;;;;;;5015616;28;20494;-87
2024/01/25 00:48:03;;;;;;;3.80;1.48;;;;;;;;;;5009263;28;20524;-87
2024/01/25 00:50:29;;;;;;;11.05;3.00;;;;;;;;;;5017837;28;20026;-87
2024/01/25 00:52:54;;;;;;;7.50;1.40;;;;;;;;;;5016068;28;20384;-86
2024/01/25 00:55:20;;;;;;;4.93;1.42;;;;;;;;;;5018046;28;20032;-86
2024/01/25 00:57:46;;;;;;;9.82;1.58;;;;;;;;;;5014310;28;20036;-88
2024/01/25 01:00:12;;;;;;;12.00;1.73;;;;;;;;;;5015207;28;20554;-86
2024/01/25 01:02:43;;;;;;;6.57;1.23;;;;;;;;;;5018145;28;20037;-87
2024/01/25 01:05:10;;;;;;;7.82;2.22;;;;;;;;;;5010956;28;20030;-87
2024/01/25 01:07:36;;;;;;;4.47;1.50;;;;;;;;;;5019890;28;20034;-87
2024/01/25 01:10:01;;;;;;;8.48;1.77;;;;;;;;;;5013406;28;20026;-86
2024/01/25 01:12:26;;;;;;;7.22;2.30;;;;;;;;;;5020748;28;20029;-86
2024/01/25 01:14:52;;;;;;;6.80;1.65;;;;;;;;;;5020053;28;20036;-87
2024/01/25 01:17:18;;;;;;;7.20;1.95;;;;;;;;;;5012971;28;20037;-87
2024/01/25 01:19:44;;;;;;;5.05;0.75;;;;;;;;;;5011139;28;20522;-86
2024/01/25 01:22:09;;;;;;;4.13;1.52;;;;;;;;;;5022190;28;20561;-86
2024/01/25 01:24:34;;;;;;;13.00;2.58;;;;;;;;;;5015647;28;20026;-87
2024/01/25 01:27:00;;;;;;;2.95;1.42;;;;;;;;;;5011317;28;20048;-86
2024/01/25 01:29:25;;;;;;;11.25;1.88;;;;;;;;;;5014196;28;20108;-88
2024/01/25 01:31:50;;;;;;;7.10;1.58;;;;;;;;;;5017402;28;20036;-88
2024/01/25 01:34:17;;;;;;;4.68;2.45;;;;;;;;;;5018570;28;20049;-88
2024/01/25 01:36:43;;;;;;;2.65;1.38;;;;;;;;;;5006961;28;20041;-86
2024/01/25 01:39:08;;;;;;;1.30;0.80;;;;;;;;;;5015064;28;20134;-88
2024/01/25 01:41:34;;;;;;;8.73;1.65;;;;;;;;;;5014901;28;20056;-87
2024/01/25 01:43:59;;;;;;;5.57;1.92;;;;;;;;;;5013992;28;20030;-88
2024/01/25 01:46:39;;;;;;;6.13;1.85;;;;;;;;;;5009990;28;20026;-87
2024/01/25 01:49:06;;;;;;;9.68;3.08;;;;;;;;;;5016003;28;20033;-87
2024/01/25 01:51:34;;;;;;;10.55;2.67;;;;;;;;;;5012565;28;20022;-87
2024/01/25 01:54:01;;;;;;;10.23;2.20;;;;;;;;;;5012896;28;20460;-86
2024/01/25 01:56:28;;;;;;;3.55;1.10;;;;;;;;;;5013677;28;20125;-86
2024/01/25 01:58:55;;;;;;;12.35;1.75;;;;;;;;;;5003700;28;20141;-87
2024/01/25 02:01:21;;;;;;;9.20;2.30;;;;;;;;;;5016422;28;20025;-87
2024/01/25 02:03:46;;;;;;;2.28;1.35;;;;;;;;;;5019777;28;20472;-88
2024/01/25 02:06:12;;;;;;;6.38;1.60;;;;;;;;;;5018136;28;20114;-88
2024/01/25 02:08:37;;;;;;;7.68;1.60;;;;;;;;;;5016873;28;20049;-87
2024/01/25 02:11:03;;;;;;;4.95;1.58;;;;;;;;;;5011192;28;20026;-87
2024/01/25 02:13:28;;;;;;;3.30;0.88;;;;;;;;;;5015457;28;20022;-87
2024/01/25 02:16:03;;;;;;;5.72;0.93;;;;;;;;;;5019845;28;20025;-88
2024/01/25 02:18:28;;;;;;;1.98;0.90;;;;;;;;;;5019408;28;20026;-88
2024/01/25 02:20:54;;;;;;;3.10;1.35;;;;;;;;;;5020491;28;20033;-88
2024/01/25 02:23:19;;;;;;;8.77;1.73;;;;;;;;;;5020767;28;20029;-88
2024/01/25 02:25:44;;;;;;;7.28;0.90;;;;;;;;;;5018903;28;20061;-89
2024/01/25 02:28:11;;;;;;;10.95;2.00;;;;;;;;;;5017611;28;20050;-88
2024/01/25 02:30:36;;;;;;;3.45;1.02;;;;;;;;;;5019215;28;20041;-87
2024/01/25 02:33:01;;;;;;;5.25;1.45;;;;;;;;;;5018861;28;20026;-87
2024/01/25 02:35:27;;;;;;;7.05;1.88;;;;;;;;;;5017679;28;20030;-89
2024/01/25 02:37:52;;;;;;;4.50;1.20;;;;;;;;;;5021072;28;20022;-88
2024/01/25 02:40:18;;;;;;;5.35;1.77;;;;;;;;;;5021367;28;20157;-86
2024/01/25 02:42:43;;;;;;;2.28;0.73;;;;;;;;;;5018377;28;20041;-88
2024/01/25 02:45:08;;;;;;;2.70;0.80;;;;;;;;;;5018939;28;20021;-87
2024/01/25 02:47:34;;;;;;;4.07;1.85;;;;;;;;;;5019774;28;20033;-86
2024/01/25 02:49:59;;;;;;;4.20;0.80;;;;;;;;;;5011425;28;20057;-86
2024/01/25 02:52:24;;;;;;;1.17;1.08;;;;;;;;;;5028300;28;20683;-87
2024/01/25 02:54:50;;;;;;;4.50;1.20;;;;;;;;;;5021692;28;20030;-88
2024/01/25 02:57:15;;;;;;;7.60;1.92;;;;;;;;;;5021442;28;20037;-88
2024/01/25 02:59:41;;;;;;;1.92;1.40;;;;;;;;;;5020636;28;20025;-88
2024/01/25 03:02:06;;;;;;;9.63;1.70;;;;;;;;;;5019987;28;20076;-87
2024/01/25 03:04:31;;;;;;;8.43;1.70;;;;;;;;;;5019601;28;20040;-87
2024/01/25 03:06:56;;;;;;;7.10;2.00;;;;;;;;;;5021489;28;20057;-87
2024/01/25 03:09:23;;;;;;;1.85;0.70;;;;;;;;;;5018299;28;20037;-87
2024/01/25 03:11:49;;;;;;;5.32;1.98;;;;;;;;;;5018004;28;20026;-86
2024/01/25 03:14:15;;;;;;;5.55;1.58;;;;;;;;;;5016611;28;20506;-87
2024/01/25 03:16:40;;;;;;;8.23;1.70;;;;;;;;;;5016705;28;20539;-88
2024/01/25 03:19:05;;;;;;;2.97;1.40;;;;;;;;;;5018841;28;20030;-87
2024/01/25 03:21:31;;;;;;;6.70;2.85;;;;;;;;;;5012819;28;20081;-86
2024/01/25 03:23:56;;;;;;;13.77;2.67;;;;;;;;;;5017964;28;20038;-87
2024/01/25 03:26:21;;;;;;;6.45;1.42;;;;;;;;;;5018926;28;20060;-87
2024/01/25 03:28:47;;;;;;;6.22;2.15;;;;;;;;;;5019107;28;20036;-89
2024/01/25 03:31:12;;;;;;;13.43;1.55;;;;;;;;;;5017219;28;20029;-87
2024/01/25 03:33:37;;;;;;;11.23;1.58;;;;;;;;;;5017041;28;20030;-88
2024/01/25 03:36:04;;;;;;;4.53;0.95;;;;;;;;;;5018401;28;20484;-87
2024/01/25 03:38:29;;;;;;;5.53;1.50;;;;;;;;;;5025430;28;20026;-89
2024/01/25 03:40:56;;;;;;;4.07;1.05;;;;;;;;;;5031040;28;20076;-87
2024/01/25 03:43:23;;;;;;;12.40;2.13;;;;;;;;;;5019386;28;20022;-87
2024/01/25 03:45:49;;;;;;;9.88;2.38;;;;;;;;;;5033480;28;20044;-88
2024/01/25 03:48:14;;;;;;;3.30;1.25;;;;;;;;;;5035702;28;20018;-89
2024/01/25 03:50:39;;;;;;;2.10;1.02;;;;;;;;;;5028371;28;20124;-87
2024/01/25 03:53:06;;;;;;;13.82;2.22;;;;;;;;;;5014451;28;20093;-86
2024/01/25 03:55:31;;;;;;;12.20;2.60;;;;;;;;;;5023149;28;20361;-88
2024/01/25 03:57:57;;;;;;;2.55;1.45;;;;;;;;;;5022557;28;20026;-88
2024/01/25 04:00:22;;;;;;;13.75;1.42;;;;;;;;;;5012819;28;20036;-88
2024/01/25 04:02:48;;;;;;;10.07;1.70;;;;;;;;;;5022951;28;20014;-88
2024/01/25 04:05:14;;;;;;;4.38;1.38;;;;;;;;;;5018432;28;20014;-87
2024/01/25 04:07:39;;;;;;;14.07;2.17;;;;;;;;;;5020050;28;20452;-88
2024/01/25 04:10:05;;;;;;;8.82;1.77;;;;;;;;;;5020575;28;20029;-88
2024/01/25 04:12:32;;;;;;;5.32;1.75;;;;;;;;;;5016082;28;20463;-87
2024/01/25 04:14:57;;;;;;;10.27;1.98;;;;;;;;;;5013506;28;20045;-88
2024/01/25 04:17:23;;;;;;;12.52;1.73;;;;;;;;;;5021618;28;20049;-88
2024/01/25 04:19:48;;;;;;;10.73;1.63;;;;;;;;;;5020337;28;20021;-86
2024/01/25 04:22:14;;;;;;;4.95;1.58;;;;;;;;;;5018427;28;20034;-87
2024/01/25 04:24:39;;;;;;;5.63;1.50;;;;;;;;;;5017820;28;20028;-88
2024/01/25 04:27:04;;;;;;;3.50;2.00;;;;;;;;;;5018256;28;20443;-88
2024/01/25 04:29:30;;;;;;;9.45;2.22;;;;;;;;;;5022807;28;20036;-86
2024/01/25 04:31:56;;;;;;;9.48;1.90;;;;;;;;;;5018997;28;20038;-86
2024/01/25 04:34:21;;;;;;;11.50;2.45;;;;;;;;;;5020047;28;20030;-86
2024/01/25 04:36:47;;;;;;;6.53;1.77;;;;;;;;;;5016715;28;20021;-87
2024/01/25 04:39:12;;;;;;;7.70;1.65;;;;;;;;;;5016161;28;20030;-88
2024/01/25 04:41:37;;;;;;;7.63;1.90;;;;;;;;;;5014345;28;20038;-88
2024/01/25 04:44:03;;;;;;;5.80;1.65;;;;;;;;;;5018001;28;20053;-89
2024/01/25 04:46:29;;;;;;;2.95;1.73;;;;;;;;;;5018057;28;20026;-89
2024/01/25 04:48:54;;;;;;;8.38;1.05;;;;;;;;;;5016909;28;20030;-89
2024/01/25 04:51:22;;;;;;;7.90;1.33;;;;;;;;;;5019051;28;20123;-89
2024/01/25 04:53:48;;;;;;;4.13;1.58;;;;;;;;;;5018461;28;20104;-88
2024/01/25 04:56:13;;;;;;;2.70;0.98;;;;;;;;;;5017609;28;20064;-88
2024/01/25 04:58:39;;;;;;;2.53;1.63;;;;;;;;;;5017872;28;20025;-88
2024/01/25 05:01:06;;;;;;;8.85;1.85;;;;;;;;;;5015677;28;20049;-89
2024/01/25 05:03:32;;;;;;;7.82;1.65;;;;;;;;;;5020491;28;20020;-87
2024/01/25 05:05:57;;;;;;;7.22;1.27;;;;;;;;;;5017165;28;20029;-89
2024/01/25 05:08:23;;;;;;;1.58;0.77;;;;;;;;;;5019398;28;20030;-86
2024/01/25 05:10:48;;;;;;;5.00;1.88;;;;;;;;;;5016508;28;20018;-88
2024/01/25 05:13:13;;;;;;;3.42;0.93;;;;;;;;;;5015343;28;20037;-88
2024/01/25 05:15:39;;;;;;;5.20;1.67;;;;;;;;;;5015838;28;20116;-88
2024/01/25 05:18:05;;;;;;;0.70;0.70;;;;;;;;;;5012944;28;20132;-88
2024/01/25 05:20:36;;;;;;;10.25;1.52;;;;;;;;;;5009544;28;20423;-88
2024/01/25 05:23:02;;;;;;;2.92;1.73;;;;;;;;;;5017897;28;20540;-87
2024/01/25 05:25:28;;;;;;;5.30;1.13;;;;;;;;;;5018061;28;20033;-88
2024/01/25 05:27:54;;;;;;;2.28;1.15;;;;;;;;;;5017773;28;20036;-87
2024/01/25 05:30:22;;;;;;;2.25;1.65;;;;;;;;;;5017458;28;20035;-88
2024/01/25 05:32:50;;;;;;;5.35;1.77;;;;;;;;;;5017733;28;20029;-88
2024/01/25 05:35:17;;;;;;;6.13;1.48;;;;;;;;;;5017723;28;20125;-87
2024/01/25 05:37:42;;;;;;;9.55;2.97;;;;;;;;;;5018074;28;20030;-88
2024/01/25 05:40:09;;;;;;;11.05;2.42;;;;;;;;;;5017861;28;20041;-87
2024/01/25 05:42:34;;;;;;;5.88;1.33;;;;;;;;;;5017430;28;20029;-88
2024/01/25 05:45:00;;;;;;;5.72;1.63;;;;;;;;;;5018710;28;20132;-87
2024/01/25 05:47:25;;;;;;;2.70;1.63;;;;;;;;;;5020441;28;20026;-87
2024/01/25 05:49:51;;;;;;;10.43;2.25;;;;;;;;;;5015527;28;20076;-88
2024/01/25 05:52:16;;;;;;;6.07;2.08;;;;;;;;;;5017708;28;20141;-87
2024/01/25 05:54:42;;;;;;;2.00;1.23;;;;;;;;;;5017185;28;20575;-86
2024/01/25 05:57:07;;;;;;;9.27;2.03;;;;;;;;;;5016660;28;20069;-87
2024/01/25 05:59:32;;;;;;;4.80;1.65;;;;;;;;;;5018222;28;20053;-87
2024/01/25 06:01:58;;;;;;;5.53;1.40;;;;;;;;;;5014728;28;20037;-88
2024/01/25 06:04:23;;;;;;;11.32;1.73;;;;;;;;;;5015127;28;20021;-88
2024/01/25 06:06:48;;;;;;;5.43;2.10;;;;;;;;;;5016497;28;20388;-87
2024/01/25 06:09:15;;;;;;;8.63;2.17;;;;;;;;;;5014323;28;20022;-87
2024/01/25 06:11:40;;;;;;;7.50;1.42;;;;;;;;;;5017926;28;20029;-87
2024/01/25 06:14:06;;;;;;;21.20;2.13;;;;;;;;;;5013848;28;20105;-88
2024/01/25 06:16:31;;;;;;;8.73;1.95;;;;;;;;;;5016338;28;20121;-88
2024/01/25 06:18:58;;;;;;;8.63;1.67;;;;;;;;;;5019841;28;20037;-87
2024/01/25 06:21:23;;;;;;;4.80;1.70;;;;;;;;;;5014882;28;20466;-88
2024/01/25 06:23:49;;;;;;;10.35;2.05;;;;;;;;;;5016310;28;20093;-87
2024/01/25 06:26:14;;;;;;;5.20;1.48;;;;;;;;;;5008123;28;20044;-87
2024/01/25 06:28:41;;;;;;;6.90;2.05;;;;;;;;;;5017869;28;20093;-87
2024/01/25 06:31:06;;;;;;;7.03;1.75;;;;;;;;;;5018080;28;20084;-87
2024/01/25 06:33:31;;;;;;;2.83;1.58;;;;;;;;;;5016297;28;20034;-88
2024/01/25 06:35:57;;;;;;;9.80;1.52;;;;;;;;;;5012513;28;20044;-87
2024/01/25 06:38:23;;;;;;;11.32;2.10;;;;;;;;;;5017369;28;20153;-87
2024/01/25 06:40:48;;;;;;;4.38;1.52;;;;;;;;;;5018921;28;20025;-87
2024/01/25 06:43:13;;;;;;;8.32;2.13;;;;;;;;;;5017025;28;20091;-86
2024/01/25 06:45:40;;;;;;;7.50;2.15;;;;;;;;;;5016454;28;20030;-86
2024/01/25 06:48:06;;;;;;;10.63;2.97;;;;;;;;;;5020580;28;20025;-88
2024/01/25 06:50:31;;;;;;;8.52;2.00;;;;;;;;;;5020096;28;20025;-87
2024/01/25 06:52:57;;;;;;;6.45;1.52;;;;;;;;;;5020485;28;20053;-88
2024/01/25 06:55:22;;;;;;;9.50;1.92;;;;;;;;;;5023027;28;20458;-89
2024/01/25 06:57:47;;;;;;;10.90;2.75;;;;;;;;;;5020621;28;20380;-87
2024/01/25 07:00:15;;;;;;;4.95;2.25;;;;;;;;;;5022898;28;20018;-87
2024/01/25 07:02:42;;;;;;;3.35;1.80;;;;;;;;;;5008748;28;20014;-87
2024/01/25 07:05:07;;;;;;;12.48;1.70;;;;;;;;;;5019032;28;20033;-88
2024/01/25 07:07:33;;;;;;;9.75;3.00;;;;;;;;;;5024770;28;20032;-88
2024/01/25 07:09:58;;;;;;;16.08;2.35;;;;;;;;;;5026695;28;20022;-87
2024/01/25 07:12:24;;;;;;;8.50;1.40;;;;;;;;;;5017665;28;20030;-85
2024/01/25 07:14:49;;;;;;;6.45;2.20;;;;;;;;;;5017577;28;20021;-85
2024/01/25 07:17:14;;;;;;;11.48;2.95;;;;;;;;;;5022745;28;20025;-87
2024/01/25 07:19:40;;;;;;;6.22;2.28;;;;;;;;;;5029630;28;20037;-85
2024/01/25 07:22:05;;;;;;;5.72;2.00;;;;;;;;;;5016993;28;20391;-85
2024/01/25 07:24:31;;;;;;;7.65;1.88;;;;;;;;;;5016070;28;20034;-85
2024/01/25 07:26:57;;;;;;;11.63;2.20;;;;;;;;;;5016360;28;20029;-85
2024/01/25 07:29:22;;;;;;;12.45;2.33;;;;;;;;;;5018237;28;20101;-85
2024/01/25 07:31:47;;;;;;;6.13;1.83;;;;;;;;;;5018971;28;20554;-86
2024/01/25 07:34:13;;;;;;;8.55;2.20;;;;;;;;;;5015864;28;20026;-85
2024/01/25 07:36:38;;;;;;;4.05;1.17;;;;;;;;;;5017782;28;20104;-86
2024/01/25 07:39:04;;;;;;;11.02;1.95;;;;;;;;;;5017047;28;20037;-87
2024/01/25 07:41:29;;;;;;;8.60;2.25;;;;;;;;;;5015085;28;20026;-87
2024/01/25 07:43:55;;;;;;;3.72;1.40;;;;;;;;;;5014856;28;20026;-85
2024/01/25 07:46:21;;;;;;;6.72;1.83;;;;;;;;;;5014324;28;20033;-86
2024/01/25 07:48:47;;;;;;;4.88;1.70;;;;;;;;;;5018094;28;20032;-86
2024/01/25 07:51:13;;;;;;;4.65;2.22;;;;;;;;;;5016523;28;20026;-87
2024/01/25 07:53:38;;;;;;;7.03;2.45;;;;;;;;;;5017217;28;20029;-87
2024/01/25 07:56:07;;;;;;;5.88;1.83;;;;;;;;;;5016951;28;20489;-87
2024/01/25 07:58:33;;;;;;;9.88;1.95;;;;;;;;;;5017619;28;20052;-86
2024/01/25 08:00:59;;;;;;;8.43;1.90;;;;;;;;;;5017796;28;20048;-86
2024/01/25 08:03:24;;;;;;;13.50;1.90;;;;;;;;;;5015368;28;20025;-86
2024/01/25 08:05:49;;;;;;;7.03;1.83;;;;;;;;;;5016158;28;20029;-87
2024/01/25 08:08:15;;;;;;;12.93;2.20;;;;;;;;;;5017293;28;20025;-86
2024/01/25 08:10:40;;;;;;;11.13;2.85;;;;;;;;;;5018241;28;20029;-86
2024/01/25 08:13:06;;;;;;;9.05;2.17;;;;;;;;;;5016574;28;20507;-86
2024/01/25 08:15:31;;;;;;;8.63;2.08;;;;;;;;;;5017755;28;20045;-86
2024/01/25 08:17:56;;;;;;;9.48;2.58;;;;;;;;;;5018521;28;20116;-85
2024/01/25 08:20:22;;;;;;;11.20;1.80;;;;;;;;;;5015764;28;20030;-86
2024/01/25 08:22:48;;;;;;;8.25;1.60;;;;;;;;;;5016371;28;20021;-86
2024/01/25 08:25:13;;;;;;;7.75;1.80;;;;;;;;;;5017328;28;20033;-87
2024/01/25 08:27:39;;;;;;;11.63;2.38;;;;;;;;;;5016683;28;20022;-87
2024/01/25 08:30:05;;;;;;;7.90;2.60;;;;;;;;;;5016632;28;20064;-86
2024/01/25 08:32:31;;;;;;;10.65;2.70;;;;;;;;;;5020569;28;20022;-86
2024/01/25 08:34:56;;;;;;;5.25;1.95;;;;;;;;;;5015139;28;20029;-86
2024/01/25 08:37:21;;;;;;;12.75;3.70;;;;;;;;;;5016223;28;20025;-86
2024/01/25 08:39:49;;;;;;;12.98;2.13;;;;;;;;;;5018277;28;20071;-86
2024/01/25 08:42:17;;;;;;;17.55;3.03;;;;;;;;;;5016997;28;20022;-86
2024/01/25 08:44:48;;;;;;;6.35;1.85;;;;;;;;;;5017840;28;20099;-86
2024/01/25 08:47:15;;;;;;;12.90;2.30;;;;;;;;;;5016654;28;20032;-86
2024/01/25 08:49:41;;;;;;;9.30;1.70;;;;;;;;;;5015227;28;20034;-87
2024/01/25 08:52:06;;;;;;;7.05;1.95;;;;;;;;;;5014007;28;20069;-86
2024/01/25 08:54:32;;;;;;;11.55;2.35;;;;;;;;;;5012826;28;20522;-87
2024/01/25 08:56:57;;;;;;;5.75;1.35;;;;;;;;;;5016591;28;20033;-85
2024/01/25 08:59:23;;;;;;;12.35;2.20;;;;;;;;;;5015959;28;20079;-86
2024/01/25 09:01:48;;;;;;;14.05;2.35;;;;;;;;;;5016928;28;20105;-85
2024/01/25 09:04:13;;;;;;;5.68;1.52;;;;;;;;;;5015437;28;20025;-86
2024/01/25 09:06:39;;;;;;;10.18;1.92;;;;;;;;;;5015443;28;20500;-86
2024/01/25 09:09:05;;;;;;;7.47;2.35;;;;;;;;;;5015405;28;20117;-85
2024/01/25 09:11:30;;;;;;;4.30;1.63;;;;;;;;;;5015319;28;20499;-86
2024/01/25 09:13:56;;;;;;;12.30;2.42;;;;;;;;;;5015656;28;20583;-86
2024/01/25 09:16:22;;;;;;;11.88;2.85;;;;;;;;;;5014741;28;20399;-86
2024/01/25 09:18:47;;;;;;;2.67;1.77;;;;;;;;;;5015733;28;20112;-85
2024/01/25 09:21:13;;;;;;;12.02;2.40;;;;;;;;;;5013553;28;20104;-86
2024/01/25 09:23:39;;;;;;;15.88;2.65;;;;;;;;;;5014587;28;20046;-87
2024/01/25 09:26:05;;;;;;;6.30;1.98;;;;;;;;;;5015490;28;20125;-87
2024/01/25 09:28:30;;;;;;;4.70;2.05;;;;;;;;;;5013287;28;20465;-87
2024/01/25 09:30:58;;;;;;;10.20;3.08;;;;;;;;;;5014411;28;20029;-88
2024/01/25 09:33:24;;;;;;;10.73;2.67;;;;;;;;;;5015184;28;20033;-87
2024/01/25 09:35:49;;;;;;;12.77;2.58;;;;;;;;;;5015030;28;20018;-86
2024/01/25 09:38:15;;;;;;;5.90;2.17;;;;;;;;;;5015566;28;20021;-87
2024/01/25 09:40:40;;;;;;;15.27;2.80;;;;;;;;;;5015043;28;20052;-86
2024/01/25 09:43:06;;;;;;;15.18;2.25;;;;;;;;;;5015221;28;20448;-85
2024/01/25 09:45:31;;;;;;;5.45;1.38;;;;;;;;;;5013058;28;20136;-85
2024/01/25 09:47:57;;;;;;;11.15;1.85;;;;;;;;;;5014034;28;20054;-86
2024/01/25 09:50:23;;;;;;;8.68;2.03;;;;;;;;;;5015463;28;20022;-86
2024/01/25 09:52:55;;;;;;;12.55;1.48;;;;;;;;;;5015182;28;20088;-85
2024/01/25 09:55:26;;;;;;;13.88;2.53;;;;;;;;;;5013392;28;20026;-86
2024/01/25 09:57:56;;;;;;;5.90;1.75;;;;;;;;;;5015175;28;20507;-86
2024/01/25 10:00:22;;;;;;;4.90;1.70;;;;;;;;;;5014794;28;20113;-86
2024/01/25 10:02:49;;;;;;;14.27;2.25;;;;;;;;;;5013403;28;20033;-87
2024/01/25 10:05:15;;;;;;;9.20;2.25;;;;;;;;;;5013687;28;20018;-86
2024/01/25 10:07:43;;;;;;;7.97;2.00;;;;;;;;;;5019535;28;20056;-86
2024/01/25 10:10:09;;;;;;;6.25;1.40;;;;;;;;;;5019372;28;20395;-86
2024/01/25 10:12:34;;;;;;;15.25;2.55;;;;;;;;;;5016330;28;20024;-86
2024/01/25 10:15:00;;;;;;;7.65;1.90;;;;;;;;;;5023012;28;20049;-86
2024/01/25 10:17:28;;;;;;;6.47;1.75;;;;;;;;;;5013239;28;20564;-86
2024/01/25 10:19:53;;;;;;;5.22;1.60;;;;;;;;;;5015381;28;20509;-86
2024/01/25 10:22:18;;;;;;;6.78;1.60;;;;;;;;;;5013370;28;20034;-86
2024/01/25 10:24:44;;;;;;;6.82;2.65;;;;;;;;;;5012802;28;20026;-85
2024/01/25 10:27:10;;;;;;;14.18;2.45;;;;;;;;;;5014344;28;20037;-86
2024/01/25 10:29:35;;;;;;;6.20;2.00;;;;;;;;;;5015144;28;20033;-85
2024/01/25 10:32:02;;;;;;;15.77;2.47;;;;;;;;;;5013748;28;20029;-87
2024/01/25 10:34:29;;;;;;;7.25;1.58;;;;;;;;;;5013190;28;20034;-86
2024/01/25 10:36:55;;;;;;;16.35;1.95;;;;;;;;;;5015391;28;20365;-86
2024/01/25 10:39:21;;;;;;;9.13;1.95;;;;;;;;;;5017482;28;20040;-86
2024/01/25 10:41:50;;;;;;;5.68;1.35;;;;;;;;;;5017155;28;20029;-86
2024/01/25 10:44:17;;;;;;;10.98;1.98;;;;;;;;;;5013346;28;20483;-85
2024/01/25 10:46:47;;;;;;;6.68;1.70;;;;;;;;;;5017330;28;20026;-86
2024/01/25 10:49:13;;;;;;;11.45;1.77;;;;;;;;;;5019608;28;20033;-85
2024/01/25 10:51:40;;;;;;;10.57;1.98;;;;;;;;;;5018097;28;20029;-86
2024/01/25 10:54:07;;;;;;;7.13;2.15;;;;;;;;;;5018676;28;20155;-86
2024/01/25 10:56:34;;;;;;;4.55;1.30;;;;;;;;;;5018145;28;20040;-86
2024/01/25 10:59:00;;;;;;;8.95;1.65;;;;;;;;;;5019156;28;20061;-86
2024/01/25 11:01:27;;;;;;;3.10;1.52;;;;;;;;;;5018554;28;20034;-87
2024/01/25 11:03:53;;;;;;;8.73;1.70;;;;;;;;;;5033516;28;20021;-86
2024/01/25 11:06:21;;;;;;;9.23;1.92;;;;;;;;;;5019621;28;20068;-86
2024/01/25 11:08:47;;;;;;;5.57;1.30;;;;;;;;;;5018489;28;20484;-86
2024/01/25 11:11:14;;;;;;;6.03;1.27;;;;;;;;;;5019163;28;20088;-86
2024/01/25 11:13:42;;;;;;;8.18;1.55;;;;;;;;;;5017829;28;20041;-86
2024/01/25 11:16:17;;;;;;;5.82;1.55;;;;;;;;;;5018291;28;20033;-86
2024/01/25 11:18:49;;;;;;;5.57;1.63;;;;;;;;;;5019265;28;20029;-86
2024/01/25 11:21:41;;;;;;;7.47;1.98;;;;;;;;;;5020805;28;20029;-87
2024/01/25 11:24:14;;;;;;;5.47;2.28;;;;;;;;;;5016177;28;20022;-87
2024/01/25 11:26:42;;;;;;;5.20;1.75;;;;;;;;;;5020144;28;20038;-86
2024/01/25 11:29:08;;;;;;;9.15;2.50;;;;;;;;;;5019197;28;20036;-86
2024/01/25 11:31:34;;;;;;;7.32;1.67;;;;;;;;;;5017276;28;20029;-86
2024/01/25 11:34:00;;;;;;;5.43;1.45;;;;;;;;;;5017566;28;20034;-86
2024/01/25 11:36:26;;;;;;;13.05;1.60;;;;;;;;;;5019811;28;20053;-86
2024/01/25 11:38:51;;;;;;;4.82;1.52;;;;;;;;;;5018476;28;20022;-86
2024/01/25 11:41:17;;;;;;;8.80;2.20;;;;;;;;;;5017609;28;20025;-86
2024/01/25 11:43:42;;;;;;;8.45;1.95;;;;;;;;;;5017135;28;20018;-87
2024/01/25 11:46:08;;;;;;;2.97;1.38;;;;;;;;;;5020258;28;20026;-86
2024/01/25 11:48:33;;;;;;;2.28;1.33;;;;;;;;;;5016425;28;20045;-87
2024/01/25 11:51:00;;;;;;;1.92;0.93;;;;;;;;;;5018696;28;20026;-85
2024/01/25 11:53:25;;;;;;;3.45;1.17;;;;;;;;;;5015788;28;20609;-86
2024/01/25 11:55:51;;;;;;;4.28;1.73;;;;;;;;;;5017210;28;20608;-86
2024/01/25 11:58:17;;;;;;;6.93;1.40;;;;;;;;;;5009426;28;20033;-86
2024/01/25 12:00:42;;;;;;;6.85;1.35;;;;;;;;;;5017578;28;20072;-86
2024/01/25 12:03:08;;;;;;;10.18;1.38;;;;;;;;;;5017143;28;20060;-86
2024/01/25 12:05:34;;;;;;;2.75;1.23;;;;;;;;;;5020465;28;20468;-86
2024/01/25 12:08:00;;;;;;;3.83;1.20;;;;;;;;;;5019324;28;20058;-87
2024/01/25 12:10:25;;;;;;;3.17;1.13;;;;;;;;;;5019766;28;20500;-86
2024/01/25 12:12:51;;;;;;;1.83;0.63;;;;;;;;;;5019952;28;20042;-87
2024/01/25 12:15:17;;;;;;;1.25;1.10;;;;;;;;;;5023044;28;20086;-86
2024/01/25 12:17:42;;;;;;;2.13;0.80;;;;;;;;;;5028963;28;20021;-87
2024/01/25 12:20:10;;;;;;;7.95;0.77;;;;;;;;;;5018445;28;20030;-86
2024/01/25 12:22:36;;;;;;;4.45;1.10;;;;;;;;;;5015210;28;20268;-85
2024/01/25 12:25:06;;;;;;;3.13;1.08;;;;;;;;;;5018807;28;20029;-86
2024/01/25 12:27:32;;;;;;;6.70;1.33;;;;;;;;;;5020662;28;20086;-85
2024/01/25 12:29:57;;;;;;;4.25;1.10;;;;;;;;;;5021709;28;20033;-86
2024/01/25 12:32:23;;;;;;;2.72;0.63;;;;;;;;;;5021263;28;20026;-85
2024/01/25 12:35:00;;;;;;;1.55;1.17;;;;;;;;;;5023492;28;20081;-87
2024/01/25 12:37:26;;;;;;;5.25;1.58;;;;;;;;;;5024861;28;20100;-87
2024/01/25 12:39:53;;;;;;;12.15;1.33;;;;;;;;;;5030700;28;20013;-87
2024/01/25 12:42:19;;;;;;;8.60;1.83;;;;;;;;;;5030097;28;20041;-88
2024/01/25 12:44:48;;;;;;;2.55;0.95;;;;;;;;;;5024098;28;20037;-87
2024/01/25 12:47:14;;;;;;;3.17;0.80;;;;;;;;;;5021342;28;20052;-88
2024/01/25 12:49:43;;;;;;;2.38;0.70;;;;;;;;;;5017921;28;20480;-87
2024/01/25 12:52:10;;;;;;;9.00;2.25;;;;;;;;;;5020301;28;20090;-88
2024/01/25 12:54:36;;;;;;;1.92;0.80;;;;;;;;;;5026339;28;20390;-87
2024/01/25 12:57:02;;;;;;;5.43;1.52;;;;;;;;;;5024173;28;20171;-86
2024/01/25 12:59:27;;;;;;;5.45;2.03;;;;;;;;;;5022058;28;20041;-86
2024/01/25 13:01:52;;;;;;;8.25;1.58;;;;;;;;;;5021197;28;20029;-87
2024/01/25 13:04:18;;;;;;;3.03;0.77;;;;;;;;;;5018765;28;20030;-86
2024/01/25 13:06:43;;;;;;;4.10;1.75;;;;;;;;;;5019207;28;20022;-86
2024/01/25 13:09:08;;;;;;;5.93;1.42;;;;;;;;;;5020975;28;20030;-87
2024/01/25 13:11:34;;;;;;;1.33;0.88;;;;;;;;;;5019952;28;20028;-87
2024/01/25 13:13:59;;;;;;;1.80;0.95;;;;;;;;;;5018970;28;20026;-87
2024/01/25 13:16:24;;;;;;;6.22;1.20;;;;;;;;;;5021858;28;20057;-86
2024/01/25 13:18:50;;;;;;;6.30;1.25;;;;;;;;;;5019442;28;20028;-85
2024/01/25 13:21:15;;;;;;;0.65;0.30;;;;;;;;;;5018598;28;20024;-85
2024/01/25 13:23:41;;;;;;;0.60;0.60;;;;;;;;;;5017421;28;20033;-86
2024/01/25 13:26:06;;;;;;;3.28;1.10;;;;;;;;;;5018388;28;20373;-87
2024/01/25 13:28:32;;;;;;;7.40;1.13;;;;;;;;;;5020558;28;20032;-86
2024/01/25 13:30:59;;;;;;;9.95;1.90;;;;;;;;;;5019926;28;20025;-86
2024/01/25 13:33:24;;;;;;;3.28;1.08;;;;;;;;;;5017631;28;20050;-88
2024/01/25 13:35:49;;;;;;;4.63;1.08;;;;;;;;;;5016204;28;20095;-86
2024/01/25 13:38:16;;;;;;;3.08;1.45;;;;;;;;;;5017134;28;20080;-87
2024/01/25 13:40:42;;;;;;;7.07;1.10;;;;;;;;;;5015364;28;20536;-86
2024/01/25 13:43:08;;;;;;;3.03;1.02;;;;;;;;;;5015384;28;20032;-87
2024/01/25 13:45:33;;;;;;;7.00;1.40;;;;;;;;;;5014547;28;20034;-87
2024/01/25 13:47:58;;;;;;;4.72;1.08;;;;;;;;;;5018711;28;20097;-85
2024/01/25 13:50:23;;;;;;;2.38;1.00;;;;;;;;;;5016128;28;20026;-88
2024/01/25 13:52:49;;;;;;;5.05;1.30;;;;;;;;;;5018991;28;20033;-87
2024/01/25 13:55:14;;;;;;;4.97;0.80;;;;;;;;;;5016162;28;20527;-87
2024/01/25 13:57:40;;;;;;;9.00;2.03;;;;;;;;;;5002389;28;20026;-88
2024/01/25 14:00:06;;;;;;;5.72;1.40;;;;;;;;;;4998223;28;20030;-88
2024/01/25 14:02:33;;;;;;;6.00;1.65;;;;;;;;;;5000002;28;20022;-87
2024/01/25 14:04:59;;;;;;;5.88;1.73;;;;;;;;;;4998495;28;20034;-86
2024/01/25 14:07:24;;;;;;;7.20;1.30;;;;;;;;;;5000031;28;20031;-85
2024/01/25 14:09:49;;;;;;;6.95;1.60;;;;;;;;;;4998686;28;20033;-86
2024/01/25 14:12:15;;;;;;;2.20;1.10;;;;;;;;;;5006990;28;20022;-88
2024/01/25 14:14:41;;;;;;;5.40;1.52;;;;;;;;;;5020871;28;20026;-88
2024/01/25 14:17:06;;;;;;;9.02;1.40;;;;;;;;;;5029865;28;20037;-88
2024/01/25 14:19:32;;;;;;;2.97;1.15;;;;;;;;;;5024244;28;20045;-87
2024/01/25 14:21:57;;;;;;;3.00;1.38;;;;;;;;;;5034754;28;20076;-87
2024/01/25 14:24:22;;;;;;;7.63;1.50;;;;;;;;;;5039467;28;20305;-88
2024/01/25 14:26:48;;;;;;;9.35;1.60;;;;;;;;;;5034314;28;20045;-86
2024/01/25 14:29:13;;;;;;;3.80;1.08;;;;;;;;;;5022928;28;20029;-86
2024/01/25 14:31:39;;;;;;;5.97;2.05;;;;;;;;;;5024789;28;20041;-86
2024/01/25 14:34:04;;;;;;;2.58;1.35;;;;;;;;;;5022698;28;20026;-86